sensor_id;sensor_type;location;lat;lon;timestamp;pressure;altitude;pressure_sealevel;temperature;humidity
80869;BME280;70295;40.182;44.498;2024-01-27T00:00:43;89743.75;;;-0.01;63.82539
80869;BME280;70295;40.182;44.498;2024-01-27T00:02:43;89742.53;;;-0.01;63.82539
80869;BME280;70295;40.182;44.498;2024-01-27T00:04:43;89752.15;;;-0.01;63.84687
80869;BME280;70295;40.182;44.498;2024-01-27T00:06:43;89743.23;;;0;63.88105
80869;BME280;70295;40.182;44.498;2024-01-27T00:08:43;89727.84;;;0.01;63.86055
80869;BME280;70295;40.182;44.498;2024-01-27T00:10:43;89719.09;;;0.01;63.87129
80869;BME280;70295;40.182;44.498;2024-01-27T00:12:43;89718.57;;;0.01;63.90351
80869;BME280;70295;40.182;44.498;2024-01-27T00:14:43;89712.63;;;0.01;63.89277
80869;BME280;70295;40.182;44.498;2024-01-27T00:16:43;89708.77;;;0.01;63.93574
80869;BME280;70295;40.182;44.498;2024-01-27T00:18:43;89712.97;;;0.01;63.925
80869;BME280;70295;40.182;44.498;2024-01-27T00:20:43;89707.53;;;0;63.925
80869;BME280;70295;40.182;44.498;2024-01-27T00:22:43;89703.7;;;-0.01;64.01875
80869;BME280;70295;40.182;44.498;2024-01-27T00:24:43;89702.83;;;0;63.96699
80869;BME280;70295;40.182;44.498;2024-01-27T00:26:43;89696.16;;;-0.01;63.9543
80869;BME280;70295;40.182;44.498;2024-01-27T00:28:43;89693.52;;;-0.02;64.03926
80869;BME280;70295;40.182;44.498;2024-01-27T00:30:43;89692.33;;;-0.01;64.04024
80869;BME280;70295;40.182;44.498;2024-01-27T00:32:43;89690.9;;;-0.02;64.02852
80869;BME280;70295;40.182;44.498;2024-01-27T00:34:43;89681.28;;;-0.03;64.00703
80869;BME280;70295;40.182;44.498;2024-01-27T00:36:43;89677.27;;;-0.02;64.08223
80869;BME280;70295;40.182;44.498;2024-01-27T00:38:43;89662.05;;;-0.02;64.1252
80869;BME280;70295;40.182;44.498;2024-01-27T00:40:43;89671.14;;;-0.01;64.14766
80869;BME280;70295;40.182;44.498;2024-01-27T00:42:43;89664.31;;;-0.02;64.1252
80869;BME280;70295;40.182;44.498;2024-01-27T00:44:43;89657.66;;;-0.02;64.07149
80869;BME280;70295;40.182;44.498;2024-01-27T00:46:43;89659.07;;;-0.02;64.1252
80869;BME280;70295;40.182;44.498;2024-01-27T00:48:43;89650.52;;;-0.01;64.14766
80869;BME280;70295;40.182;44.498;2024-01-27T00:50:43;89648.23;;;-0.02;64.16817
80869;BME280;70295;40.182;44.498;2024-01-27T00:52:43;89645.94;;;-0.02;64.22188
80869;BME280;70295;40.182;44.498;2024-01-27T00:54:43;89645.26;;;-0.01;64.23457
80869;BME280;70295;40.182;44.498;2024-01-27T00:56:43;89645.62;;;0;64.21309
80869;BME280;70295;40.182;44.498;2024-01-27T00:58:43;89645.62;;;0;64.21309
80869;BME280;70295;40.182;44.498;2024-01-27T01:00:43;89649.47;;;0;64.28828
80869;BME280;70295;40.182;44.498;2024-01-27T01:02:43;89646.3;;;-0.02;64.18965
80869;BME280;70295;40.182;44.498;2024-01-27T01:04:43;89640.33;;;-0.03;64.28438
80869;BME280;70295;40.182;44.498;2024-01-27T01:06:43;89637.54;;;-0.04;64.25117
80869;BME280;70295;40.182;44.498;2024-01-27T01:08:43;89635.08;;;-0.04;64.33711
80869;BME280;70295;40.182;44.498;2024-01-27T01:10:43;89624.92;;;-0.04;64.34688
80869;BME280;70295;40.182;44.498;2024-01-27T01:12:43;89621.25;;;-0.04;64.44453
80869;BME280;70295;40.182;44.498;2024-01-27T01:14:43;89614.63;;;-0.03;64.45625
80869;BME280;70295;40.182;44.498;2024-01-27T01:16:43;89615.86;;;-0.03;64.39278
80869;BME280;70295;40.182;44.498;2024-01-27T01:18:43;89613.22;;;-0.04;64.43282
80869;BME280;70295;40.182;44.498;2024-01-27T01:20:43;89612.69;;;-0.03;64.45625
80869;BME280;70295;40.182;44.498;2024-01-27T01:22:43;89609.73;;;-0.03;64.41328
80869;BME280;70295;40.182;44.498;2024-01-27T01:24:43;89607.08;;;-0.07;64.23555
80869;BME280;70295;40.182;44.498;2024-01-27T01:32:48;89611.86;;;-0.35;63.93476
80869;BME280;70295;40.182;44.498;2024-01-27T01:34:47;89611.34;;;-0.34;64.09688
80869;BME280;70295;40.182;44.498;2024-01-27T01:36:48;89614.13;;;-0.36;64.00801
80869;BME280;70295;40.182;44.498;2024-01-27T01:38:48;89610.23;;;-0.4;64.09883
80869;BME280;70295;40.182;44.498;2024-01-27T01:40:48;89608.63;;;-0.43;64.18086
80869;BME280;70295;40.182;44.498;2024-01-27T01:42:50;89604.23;;;-0.46;64.26192
80869;BME280;70295;40.182;44.498;2024-01-27T01:44:48;89598.56;;;-0.52;64.27364
80869;BME280;70295;40.182;44.498;2024-01-27T01:46:47;89599.59;;;-0.55;64.33418
80869;BME280;70295;40.182;44.498;2024-01-27T01:48:48;89602.02;;;-0.56;64.4709
80869;BME280;70295;40.182;44.498;2024-01-27T01:50:48;89604.11;;;-0.57;64.57637
80869;BME280;70295;40.182;44.498;2024-01-27T01:52:48;89597.64;;;-0.58;64.69258
80869;BME280;70295;40.182;44.498;2024-01-27T01:54:50;89594.46;;;-0.59;64.8625
80869;BME280;70295;40.182;44.498;2024-01-27T01:56:48;89606.53;;;-0.59;64.92696
80869;BME280;70295;40.182;44.498;2024-01-27T01:58:47;89614.73;;;-0.59;65.0666
80869;BME280;70295;40.182;44.498;2024-01-27T02:00:47;89615.8;;;-0.6;65.17403
80869;BME280;70295;40.182;44.498;2024-01-27T02:02:48;89615.24;;;-0.6;65.23653
80869;BME280;70295;40.182;44.498;2024-01-27T02:04:48;89611.38;;;-0.62;65.29805
80869;BME280;70295;40.182;44.498;2024-01-27T02:06:48;89614.67;;;-0.65;65.32539
80869;BME280;70295;40.182;44.498;2024-01-27T02:08:48;89616.92;;;-0.68;65.41817
80869;BME280;70295;40.182;44.498;2024-01-27T02:10:59;89606.41;;;-0.7;65.44746
80869;BME280;70295;40.182;44.498;2024-01-27T02:12:59;89597.98;;;-0.73;65.55879
80869;BME280;70295;40.182;44.498;2024-01-27T02:14:59;89592.03;;;-0.73;65.70821
80869;BME280;70295;40.182;44.498;2024-01-27T02:16:59;89589.97;;;-0.72;65.95821
80869;BME280;70295;40.182;44.498;2024-01-27T02:18:59;89582.83;;;-0.67;66.09395
80869;BME280;70295;40.182;44.498;2024-01-27T02:20:59;89584.81;;;-0.63;66.19649
80869;BME280;70295;40.182;44.498;2024-01-27T02:22:59;89594.13;;;-0.58;66.24629
80869;BME280;70295;40.182;44.498;2024-01-27T02:24:59;89587.52;;;-0.55;66.30586
80869;BME280;70295;40.182;44.498;2024-01-27T02:26:59;89585.3;;;-0.51;66.36543
80869;BME280;70295;40.182;44.498;2024-01-27T02:28:59;89585.34;;;-0.47;66.40352
80869;BME280;70295;40.182;44.498;2024-01-27T02:30:59;89579.76;;;-0.46;66.2336
80869;BME280;70295;40.182;44.498;2024-01-27T02:32:59;89573.78;;;-0.5;66.00215
80869;BME280;70295;40.182;44.498;2024-01-27T02:34:59;89573.7;;;-0.57;65.74434
80869;BME280;70295;40.182;44.498;2024-01-27T02:36:59;89578.17;;;-0.63;65.79903
80869;BME280;70295;40.182;44.498;2024-01-27T02:38:59;89574.02;;;-0.61;65.94258
80869;BME280;70295;40.182;44.498;2024-01-27T02:40:59;89570.21;;;-0.55;66.07051
80869;BME280;70295;40.182;44.498;2024-01-27T02:42:59;89562.39;;;-0.5;66.13106
80869;BME280;70295;40.182;44.498;2024-01-27T02:44:59;89560.7;;;-0.46;66.14961
80869;BME280;70295;40.182;44.498;2024-01-27T02:46:59;89561.26;;;-0.42;66.09981
80869;BME280;70295;40.182;44.498;2024-01-27T02:48:59;89563.56;;;-0.4;66.08321
80869;BME280;70295;40.182;44.498;2024-01-27T02:51:01;89562.18;;;-0.38;66.06465
80869;BME280;70295;40.182;44.498;2024-01-27T02:52:59;89562.91;;;-0.35;66.05782
80869;BME280;70295;40.182;44.498;2024-01-27T02:54:59;89554.7;;;-0.33;66.06075
80869;BME280;70295;40.182;44.498;2024-01-27T02:56:59;89546.16;;;-0.31;66.05489
80869;BME280;70295;40.182;44.498;2024-01-27T02:58:59;89540.41;;;-0.29;66.0793
80869;BME280;70295;40.182;44.498;2024-01-27T03:00:59;89545.48;;;-0.28;66.1125
80869;BME280;70295;40.182;44.498;2024-01-27T03:02:59;89544.45;;;-0.27;66.10274
80869;BME280;70295;40.182;44.498;2024-01-27T03:04:59;89538.51;;;-0.25;66.08418
80869;BME280;70295;40.182;44.498;2024-01-27T03:06:59;89537.66;;;-0.24;66.08711
80869;BME280;70295;40.182;44.498;2024-01-27T03:08:59;89535.4;;;-0.23;66.04512
80869;BME280;70295;40.182;44.498;2024-01-27T03:10:59;89534.86;;;-0.24;66.03438
80869;BME280;70295;40.182;44.498;2024-01-27T03:12:59;89530.34;;;-0.22;66.00313
80869;BME280;70295;40.182;44.498;2024-01-27T03:14:59;89523.52;;;-0.22;66.03535
80869;BME280;70295;40.182;44.498;2024-01-27T03:16:59;89527.38;;;-0.22;66.02461
80869;BME280;70295;40.182;44.498;2024-01-27T03:18:59;89521.73;;;-0.24;66.0002
80869;BME280;70295;40.182;44.498;2024-01-27T03:20:59;89523.69;;;-0.23;65.99141
80869;BME280;70295;40.182;44.498;2024-01-27T03:26:24;89522.9;;;-0.31;65.78633
80869;BME280;70295;40.182;44.498;2024-01-27T03:28:24;89525.48;;;-0.35;65.83321
80869;BME280;70295;40.182;44.498;2024-01-27T03:30:24;89527.95;;;-0.34;65.74825
80869;BME280;70295;40.182;44.498;2024-01-27T03:32:24;89525.86;;;-0.34;65.72676
80869;BME280;70295;40.182;44.498;2024-01-27T03:34:24;89525.67;;;-0.34;65.78242
80869;BME280;70295;40.182;44.498;2024-01-27T03:36:24;89527.44;;;-0.33;65.80391
80869;BME280;70295;40.182;44.498;2024-01-27T03:38:24;89532.52;;;-0.32;65.88008
80869;BME280;70295;40.182;44.498;2024-01-27T03:40:24;89529.02;;;-0.31;65.84004
80869;BME280;70295;40.182;44.498;2024-01-27T03:42:24;89528.47;;;-0.33;65.675
80869;BME280;70295;40.182;44.498;2024-01-27T03:44:24;89530.58;;;-0.34;65.71797
80869;BME280;70295;40.182;44.498;2024-01-27T03:46:24;89529.7;;;-0.34;65.7375
80869;BME280;70295;40.182;44.498;2024-01-27T03:48:24;89536.34;;;-0.34;65.78047
80869;BME280;70295;40.182;44.498;2024-01-27T03:50:24;89538.78;;;-0.34;65.80196
80869;BME280;70295;40.182;44.498;2024-01-27T03:52:24;89535.82;;;-0.33;65.83614
80869;BME280;70295;40.182;44.498;2024-01-27T03:54:24;89531.28;;;-0.33;65.78242
80869;BME280;70295;40.182;44.498;2024-01-27T03:56:24;89536.67;;;-0.36;65.66133
80869;BME280;70295;40.182;44.498;2024-01-27T03:58:24;89534.56;;;-0.39;65.66621
80869;BME280;70295;40.182;44.498;2024-01-27T04:00:24;89530.5;;;-0.41;65.58711
80869;BME280;70295;40.182;44.498;2024-01-27T04:02:24;89528.58;;;-0.43;65.63887
80869;BME280;70295;40.182;44.498;2024-01-27T04:04:24;89523.3;;;-0.46;65.46211
80869;BME280;70295;40.182;44.498;2024-01-27T04:06:24;89526.73;;;-0.52;65.43184
80869;BME280;70295;40.182;44.498;2024-01-27T04:08:24;89525.14;;;-0.53;65.49336
80869;BME280;70295;40.182;44.498;2024-01-27T04:10:24;89526.53;;;-0.54;65.50215
80869;BME280;70295;40.182;44.498;2024-01-27T04:12:24;89524.58;;;-0.57;65.34785
80869;BME280;70295;40.182;44.498;2024-01-27T04:14:24;89521.16;;;-0.69;65.07246
80869;BME280;70295;40.182;44.498;2024-01-27T04:16:24;89517.79;;;-0.73;65.29121
80869;BME280;70295;40.182;44.498;2024-01-27T04:18:24;89525.5;;;-0.69;65.50117
80869;BME280;70295;40.182;44.498;2024-01-27T04:20:24;89521.02;;;-0.66;65.66621
80869;BME280;70295;40.182;44.498;2024-01-27T04:22:24;89516.98;;;-0.66;65.50508
80869;BME280;70295;40.182;44.498;2024-01-27T04:24:24;89514.19;;;-0.67;65.53535
80869;BME280;70295;40.182;44.498;2024-01-27T04:26:24;89518.03;;;-0.66;65.58125
80869;BME280;70295;40.182;44.498;2024-01-27T04:28:24;89519.28;;;-0.63;65.59688
80869;BME280;70295;40.182;44.498;2024-01-27T04:30:24;89513.55;;;-0.6;65.68672
80869;BME280;70295;40.182;44.498;2024-01-27T04:32:24;89513.56;;;-0.57;65.78731
80869;BME280;70295;40.182;44.498;2024-01-27T04:34:24;89511.68;;;-0.54;65.82442
80869;BME280;70295;40.182;44.498;2024-01-27T04:36:25;89513.45;;;-0.51;65.90352
80869;BME280;70295;40.182;44.498;2024-01-27T04:38:24;89515.38;;;-0.52;65.77461
80869;BME280;70295;40.182;44.498;2024-01-27T04:40:24;89509.42;;;-0.53;65.77364
80869;BME280;70295;40.182;44.498;2024-01-27T04:42:24;89511.7;;;-0.53;65.8586
80869;BME280;70295;40.182;44.498;2024-01-27T04:44:24;89507.88;;;-0.49;65.88594
80869;BME280;70295;40.182;44.498;2024-01-27T04:46:24;89511.56;;;-0.49;65.90742
80869;BME280;70295;40.182;44.498;2024-01-27T04:48:24;89504.25;;;-0.45;65.97774
80869;BME280;70295;40.182;44.498;2024-01-27T04:50:24;89504.08;;;-0.44;65.92598
80869;BME280;70295;40.182;44.498;2024-01-27T04:52:24;89503.83;;;-0.52;65.67793
80869;BME280;70295;40.182;44.498;2024-01-27T04:54:24;89502.92;;;-0.56;65.7795
80869;BME280;70295;40.182;44.498;2024-01-27T04:56:24;89496.8;;;-0.56;65.83125
80869;BME280;70295;40.182;44.498;2024-01-27T04:58:24;89496.14;;;-0.54;65.93086
80869;BME280;70295;40.182;44.498;2024-01-27T05:00:25;89493.34;;;-0.52;65.98946
80869;BME280;70295;40.182;44.498;2024-01-27T05:02:24;89493.9;;;-0.5;66.00215
80869;BME280;70295;40.182;44.498;2024-01-27T05:04:24;89497.38;;;-0.49;65.99239
80869;BME280;70295;40.182;44.498;2024-01-27T05:06:24;89492.69;;;-0.47;66.09297
80869;BME280;70295;40.182;44.498;2024-01-27T05:08:24;89501.11;;;-0.44;66.16133
80869;BME280;70295;40.182;44.498;2024-01-27T05:10:24;89502.53;;;-0.41;66.18867
80869;BME280;70295;40.182;44.498;2024-01-27T05:12:24;89511.11;;;-0.38;66.19258
80869;BME280;70295;40.182;44.498;2024-01-27T05:14:24;89517.95;;;-0.37;66.18379
80869;BME280;70295;40.182;44.498;2024-01-27T05:16:24;89525.84;;;-0.36;66.2834
80869;BME280;70295;40.182;44.498;2024-01-27T05:18:24;89529.54;;;-0.33;66.31856
80869;BME280;70295;40.182;44.498;2024-01-27T05:20:24;89533.02;;;-0.33;66.26485
80869;BME280;70295;40.182;44.498;2024-01-27T05:22:24;89528.3;;;-0.34;66.2541
80869;BME280;70295;40.182;44.498;2024-01-27T05:24:24;89526.02;;;-0.34;66.27559
80869;BME280;70295;40.182;44.498;2024-01-27T05:26:24;89530.58;;;-0.33;66.31856
80869;BME280;70295;40.182;44.498;2024-01-27T05:28:24;89525.49;;;-0.34;66.32735
80869;BME280;70295;40.182;44.498;2024-01-27T05:30:24;89527.08;;;-0.34;66.34004
80869;BME280;70295;40.182;44.498;2024-01-27T05:32:24;89531.83;;;-0.32;66.33223
80869;BME280;70295;40.182;44.498;2024-01-27T05:34:24;89533.91;;;-0.32;66.41719
80869;BME280;70295;40.182;44.498;2024-01-27T05:36:24;89540.93;;;-0.3;66.40938
80869;BME280;70295;40.182;44.498;2024-01-27T05:38:24;89543.38;;;-0.28;66.39082
80869;BME280;70295;40.182;44.498;2024-01-27T05:40:24;89543.92;;;-0.29;66.36836
80869;BME280;70295;40.182;44.498;2024-01-27T05:42:24;89542.52;;;-0.29;66.32539
80869;BME280;70295;40.182;44.498;2024-01-27T05:44:24;89538.63;;;-0.31;66.33321
80869;BME280;70295;40.182;44.498;2024-01-27T05:46:24;89538.28;;;-0.32;66.31075
80869;BME280;70295;40.182;44.498;2024-01-27T05:48:24;89540.55;;;-0.32;66.32149
80869;BME280;70295;40.182;44.498;2024-01-27T05:50:24;89541.25;;;-0.33;66.35078
80869;BME280;70295;40.182;44.498;2024-01-27T05:52:24;89540.72;;;-0.33;66.40352
80869;BME280;70295;40.182;44.498;2024-01-27T05:54:24;89540;;;-0.34;66.37032
80869;BME280;70295;40.182;44.498;2024-01-27T05:56:24;89537.04;;;-0.34;66.3293
80869;BME280;70295;40.182;44.498;2024-01-27T05:58:24;89535.98;;;-0.34;66.37032
80869;BME280;70295;40.182;44.498;2024-01-27T06:00:24;89537.92;;;-0.33;66.425
80869;BME280;70295;40.182;44.498;2024-01-27T06:02:24;89543.52;;;-0.32;66.4377
80869;BME280;70295;40.182;44.498;2024-01-27T06:04:24;89552.47;;;-0.31;66.44063
80869;BME280;70295;40.182;44.498;2024-01-27T06:06:24;89556.3;;;-0.31;66.31172
80869;BME280;70295;40.182;44.498;2024-01-27T06:08:24;89559.06;;;-0.33;66.28633
80869;BME280;70295;40.182;44.498;2024-01-27T06:10:24;89564.84;;;-0.35;66.29414
80869;BME280;70295;40.182;44.498;2024-01-27T06:12:24;89566.22;;;-0.36;66.26192
80869;BME280;70295;40.182;44.498;2024-01-27T06:14:24;89563.59;;;-0.36;66.25117
80869;BME280;70295;40.182;44.498;2024-01-27T06:16:24;89564.98;;;-0.36;66.25996
80869;BME280;70295;40.182;44.498;2024-01-27T06:18:24;89562.38;;;-0.36;66.25996
80869;BME280;70295;40.182;44.498;2024-01-27T06:20:24;89564.3;;;-0.36;66.31563
80869;BME280;70295;40.182;44.498;2024-01-27T06:22:24;89554.84;;;-0.36;66.28145
80869;BME280;70295;40.182;44.498;2024-01-27T06:24:24;89553.48;;;-0.35;66.30489
80869;BME280;70295;40.182;44.498;2024-01-27T06:26:24;89548.92;;;-0.35;66.29414
80869;BME280;70295;40.182;44.498;2024-01-27T06:28:24;89550.87;;;-0.33;66.26485
80869;BME280;70295;40.182;44.498;2024-01-27T06:30:24;89550.69;;;-0.32;66.17989
80869;BME280;70295;40.182;44.498;2024-01-27T06:32:24;89548.41;;;-0.33;66.14668
80869;BME280;70295;40.182;44.498;2024-01-27T06:34:24;89556.45;;;-0.33;66.06075
80869;BME280;70295;40.182;44.498;2024-01-27T06:36:24;89551.91;;;-0.34;66.08223
80869;BME280;70295;40.182;44.498;2024-01-27T06:38:24;89550.86;;;-0.32;66.10664
80869;BME280;70295;40.182;44.498;2024-01-27T06:40:24;89555.61;;;-0.31;66.05489
80869;BME280;70295;40.182;44.498;2024-01-27T06:42:24;89555.05;;;-0.33;65.97481
80869;BME280;70295;40.182;44.498;2024-01-27T06:44:24;89555.59;;;-0.33;66.05
80869;BME280;70295;40.182;44.498;2024-01-27T06:46:24;89561.02;;;-0.31;66.04414
80869;BME280;70295;40.182;44.498;2024-01-27T06:48:24;89562.25;;;-0.3;66.08809
80869;BME280;70295;40.182;44.498;2024-01-27T06:50:24;89552.48;;;-0.28;66.08028
80869;BME280;70295;40.182;44.498;2024-01-27T06:52:24;89549.52;;;-0.28;66.03731
80869;BME280;70295;40.182;44.498;2024-01-27T06:54:24;89548.31;;;-0.25;66.02071
80869;BME280;70295;40.182;44.498;2024-01-27T06:56:24;89546.94;;;-0.23;66.0666
80869;BME280;70295;40.182;44.498;2024-01-27T06:58:24;89550.11;;;-0.2;66.08125
80869;BME280;70295;40.182;44.498;2024-01-27T07:00:24;89545.91;;;-0.19;66.05196
80869;BME280;70295;40.182;44.498;2024-01-27T07:02:24;89541.2;;;-0.18;66.05391
80869;BME280;70295;40.182;44.498;2024-01-27T07:04:24;89543.49;;;-0.15;66.06856
80869;BME280;70295;40.182;44.498;2024-01-27T07:06:24;89537.39;;;-0.13;66.06075
80869;BME280;70295;40.182;44.498;2024-01-27T07:08:24;89541.28;;;-0.1;66.02168
80869;BME280;70295;40.182;44.498;2024-01-27T07:10:24;89540.42;;;-0.09;65.99239
80869;BME280;70295;40.182;44.498;2024-01-27T07:12:24;89540.06;;;-0.07;66.0168
80869;BME280;70295;40.182;44.498;2024-01-27T07:14:24;89540.08;;;-0.05;65.96602
80869;BME280;70295;40.182;44.498;2024-01-27T07:16:24;89538.53;;;-0.05;65.87129
80869;BME280;70295;40.182;44.498;2024-01-27T07:18:24;89535.03;;;-0.04;65.83907
80869;BME280;70295;40.182;44.498;2024-01-27T07:20:24;89530.66;;;-0.03;65.8625
80869;BME280;70295;40.182;44.498;2024-01-27T07:22:24;89534.7;;;-0.01;65.7795
80869;BME280;70295;40.182;44.498;2024-01-27T07:24:24;89527.37;;;-0.01;65.74727
80869;BME280;70295;40.182;44.498;2024-01-27T07:26:24;89532.63;;;0.01;65.76094
80869;BME280;70295;40.182;44.498;2024-01-27T07:28:24;89531.05;;;0.02;65.74043
80869;BME280;70295;40.182;44.498;2024-01-27T07:30:24;89528.97;;;0.04;65.78633
80869;BME280;70295;40.182;44.498;2024-01-27T07:32:24;89524.78;;;0.04;65.77754
80869;BME280;70295;40.182;44.498;2024-01-27T07:34:24;89523.4;;;0.06;65.79024
80869;BME280;70295;40.182;44.498;2024-01-27T07:36:24;89526.89;;;0.09;65.78438
80869;BME280;70295;40.182;44.498;2024-01-27T07:38:24;89526.22;;;0.1;65.81758
80869;BME280;70295;40.182;44.498;2024-01-27T07:40:24;89525.16;;;0.11;65.83028
80869;BME280;70295;40.182;44.498;2024-01-27T07:42:24;89524.14;;;0.12;65.89766
80869;BME280;70295;40.182;44.498;2024-01-27T07:44:24;89528.33;;;0.12;65.88496
80869;BME280;70295;40.182;44.498;2024-01-27T07:46:24;89524.66;;;0.12;65.88496
80869;BME280;70295;40.182;44.498;2024-01-27T07:48:24;89526.59;;;0.13;65.88692
80869;BME280;70295;40.182;44.498;2024-01-27T07:50:24;89526.25;;;0.13;65.96211
80869;BME280;70295;40.182;44.498;2024-01-27T07:52:24;89521.7;;;0.15;66.00801
80869;BME280;70295;40.182;44.498;2024-01-27T07:54:24;89521.19;;;0.16;66.04317
80869;BME280;70295;40.182;44.498;2024-01-27T07:56:24;89525.4;;;0.18;66.08809
80869;BME280;70295;40.182;44.498;2024-01-27T07:58:24;89527.16;;;0.19;66.13301
80869;BME280;70295;40.182;44.498;2024-01-27T08:00:24;89522.45;;;0.2;66.14473
80869;BME280;70295;40.182;44.498;2024-01-27T08:02:24;89519.83;;;0.21;66.13399
80869;BME280;70295;40.182;44.498;2024-01-27T08:04:24;89516.47;;;0.19;66.01485
80869;BME280;70295;40.182;44.498;2024-01-27T08:06:28;89515.72;;;0.11;65.67989
80869;BME280;70295;40.182;44.498;2024-01-27T08:08:24;89515.48;;;0.02;65.592
80869;BME280;70295;40.182;44.498;2024-01-27T08:10:24;89512.98;;;-0.07;65.51289
80869;BME280;70295;40.182;44.498;2024-01-27T08:12:24;89508.18;;;-0.14;65.68379
80869;BME280;70295;40.182;44.498;2024-01-27T08:14:24;89512.41;;;-0.13;65.80293
80869;BME280;70295;40.182;44.498;2024-01-27T08:16:24;89508.2;;;-0.12;65.93477
80869;BME280;70295;40.182;44.498;2024-01-27T08:18:24;89506.66;;;-0.08;66.13203
80869;BME280;70295;40.182;44.498;2024-01-27T08:20:24;89502.65;;;-0.05;66.1916
80869;BME280;70295;40.182;44.498;2024-01-27T08:22:24;89497.27;;;-0.02;66.36739
80869;BME280;70295;40.182;44.498;2024-01-27T08:24:24;89497.3;;;0.02;66.47188
80869;BME280;70295;40.182;44.498;2024-01-27T08:26:24;89496.28;;;0.06;66.53145
80869;BME280;70295;40.182;44.498;2024-01-27T08:28:24;89500.84;;;0.09;66.65352
80869;BME280;70295;40.182;44.498;2024-01-27T08:30:24;89498.39;;;0.11;66.73164
80869;BME280;70295;40.182;44.498;2024-01-27T08:32:24;89499.47;;;0.15;66.78047
80869;BME280;70295;40.182;44.498;2024-01-27T08:34:24;89496.34;;;0.15;66.717
80869;BME280;70295;40.182;44.498;2024-01-27T08:36:24;89500.16;;;0.13;66.6916
80869;BME280;70295;40.182;44.498;2024-01-27T08:38:24;89500.52;;;0.13;66.7668
80869;BME280;70295;40.182;44.498;2024-01-27T08:40:24;89501.05;;;0.13;66.73457
80869;BME280;70295;40.182;44.498;2024-01-27T08:42:24;89498.77;;;0.12;66.72188
80869;BME280;70295;40.182;44.498;2024-01-27T08:44:24;89506.63;;;0.11;66.77266
80869;BME280;70295;40.182;44.498;2024-01-27T08:46:24;89503.48;;;0.11;66.7961
80869;BME280;70295;40.182;44.498;2024-01-27T08:48:24;89506.28;;;0.11;66.72969
80869;BME280;70295;40.182;44.498;2024-01-27T08:50:24;89506.08;;;0.08;66.71602
80869;BME280;70295;40.182;44.498;2024-01-27T08:52:24;89507.3;;;0.04;66.59297
80869;BME280;70295;40.182;44.498;2024-01-27T08:54:24;89509.89;;;0.02;66.67403
80869;BME280;70295;40.182;44.498;2024-01-27T08:56:24;89514.78;;;0.02;66.68477
80869;BME280;70295;40.182;44.498;2024-01-27T08:59:59;89519.13;;;-0.03;66.68965
80869;BME280;70295;40.182;44.498;2024-01-27T09:01:59;89528.39;;;-0.05;66.69746
80869;BME280;70295;40.182;44.498;2024-01-27T09:03:59;89519.81;;;-0.06;66.70528
80869;BME280;70295;40.182;44.498;2024-01-27T09:05:59;89522.77;;;-0.07;66.71407
80869;BME280;70295;40.182;44.498;2024-01-27T09:07:59;89524.32;;;-0.08;66.71309
80869;BME280;70295;40.182;44.498;2024-01-27T09:09:59;89525.55;;;-0.08;66.71114
80869;BME280;70295;40.182;44.498;2024-01-27T09:11:59;89529.75;;;-0.08;66.77559
80869;BME280;70295;40.182;44.498;2024-01-27T09:13:59;89530.13;;;-0.07;66.76778
80869;BME280;70295;40.182;44.498;2024-01-27T09:15:59;89532.91;;;-0.07;66.73555
80869;BME280;70295;40.182;44.498;2024-01-27T09:17:59;89537.47;;;-0.07;66.73555
80869;BME280;70295;40.182;44.498;2024-01-27T09:19:59;89533.25;;;-0.06;66.74629
80869;BME280;70295;40.182;44.498;2024-01-27T09:21:59;89531;;;-0.06;66.71602
80869;BME280;70295;40.182;44.498;2024-01-27T09:23:59;89535.38;;;-0.06;66.71602
80869;BME280;70295;40.182;44.498;2024-01-27T09:25:59;89535.92;;;-0.03;66.79512
80869;BME280;70295;40.182;44.498;2024-01-27T09:27:59;89532.41;;;-0.02;66.76485
80869;BME280;70295;40.182;44.498;2024-01-27T09:29:59;89525.45;;;-0.01;66.71211
80869;BME280;70295;40.182;44.498;2024-01-27T09:31:59;89528.58;;;-0.01;66.71211
80869;BME280;70295;40.182;44.498;2024-01-27T09:33:59;89529.11;;;-0.01;66.66914
80869;BME280;70295;40.182;44.498;2024-01-27T09:35:59;89530.85;;;-0.02;66.66817
80869;BME280;70295;40.182;44.498;2024-01-27T09:37:59;89527.7;;;-0.01;66.64961
80869;BME280;70295;40.182;44.498;2024-01-27T09:39:59;89524.72;;;-0.02;66.61446
80869;BME280;70295;40.182;44.498;2024-01-27T09:42:00;89526.11;;;-0.03;66.67696
80869;BME280;70295;40.182;44.498;2024-01-27T09:44:02;89529.13;;;0;66.64961
80869;BME280;70295;40.182;44.498;2024-01-27T09:45:59;89532.28;;;0.03;66.67696
80869;BME280;70295;40.182;44.498;2024-01-27T09:47:59;89527.78;;;0.07;66.63985
80869;BME280;70295;40.182;44.498;2024-01-27T09:49:59;89525.52;;;0.09;66.60176
80869;BME280;70295;40.182;44.498;2024-01-27T09:51:59;89527.44;;;0.1;66.60176
80869;BME280;70295;40.182;44.498;2024-01-27T09:53:59;89525.02;;;0.12;66.54024
80869;BME280;70295;40.182;44.498;2024-01-27T09:55:59;89520.98;;;0.13;66.43575
80869;BME280;70295;40.182;44.498;2024-01-27T09:57:59;89517.66;;;0.12;66.32539
80869;BME280;70295;40.182;44.498;2024-01-27T09:59:59;89516.27;;;0.13;66.3586
80869;BME280;70295;40.182;44.498;2024-01-27T10:01:59;89517.34;;;0.14;66.30782
80869;BME280;70295;40.182;44.498;2024-01-27T10:03:59;89517.16;;;0.16;66.32051
80869;BME280;70295;40.182;44.498;2024-01-27T10:05:59;89510.86;;;0.17;66.3127
80869;BME280;70295;40.182;44.498;2024-01-27T10:07:59;89511.92;;;0.19;66.29414
80869;BME280;70295;40.182;44.498;2024-01-27T10:09:59;89513.7;;;0.21;66.38301
80869;BME280;70295;40.182;44.498;2024-01-27T10:12:00;89507.94;;;0.23;66.45918
80869;BME280;70295;40.182;44.498;2024-01-27T10:13:59;89505.13;;;0.23;66.38692
80869;BME280;70295;40.182;44.498;2024-01-27T10:20:00;89499.55;;;0.24;66.47481
80869;BME280;70295;40.182;44.498;2024-01-27T10:22:00;89507.77;;;0.22;66.37325